sensor_id;sensor_type;location;lat;lon;timestamp;pressure;altitude;pressure_sealevel;temperature;humidity
58385;BME280;44185;47.844;8.966;2023-05-23T00:00:56;95995.44;;;13.25;100.00
58385;BME280;44185;47.844;8.966;2023-05-23T00:03:22;95991.50;;;13.29;100.00
58385;BME280;44185;47.844;8.966;2023-05-23T00:05:49;95994.84;;;13.31;100.00
58385;BME280;44185;47.844;8.966;2023-05-23T00:08:14;95990.88;;;13.35;100.00
58385;BME280;44185;47.844;8.966;2023-05-23T00:10:40;95998.00;;;13.35;100.00
58385;BME280;44185;47.844;8.966;2023-05-23T00:13:05;95992.31;;;13.30;100.00
58385;BME280;44185;47.844;8.966;2023-05-23T00:15:30;95996.50;;;13.32;100.00
58385;BME280;44185;47.844;8.966;2023-05-23T00:17:56;95994.94;;;13.21;100.00
58385;BME280;44185;47.844;8.966;2023-05-23T00:20:21;95993.81;;;13.24;100.00
58385;BME280;44185;47.844;8.966;2023-05-23T00:22:48;95998.28;;;13.23;100.00
58385;BME280;44185;47.844;8.966;2023-05-23T00:25:14;95993.44;;;13.19;100.00
58385;BME280;44185;47.844;8.966;2023-05-23T00:27:39;95997.44;;;13.23;100.00
58385;BME280;44185;47.844;8.966;2023-05-23T00:30:08;95997.81;;;13.28;100.00
58385;BME280;44185;47.844;8.966;2023-05-23T00:32:34;95995.09;;;13.20;100.00
58385;BME280;44185;47.844;8.966;2023-05-23T00:35:00;96007.94;;;13.06;100.00
58385;BME280;44185;47.844;8.966;2023-05-23T00:37:25;96003.75;;;13.04;100.00
58385;BME280;44185;47.844;8.966;2023-05-23T00:39:52;96004.53;;;12.96;100.00
58385;BME280;44185;47.844;8.966;2023-05-23T00:42:17;96002.94;;;12.85;100.00
58385;BME280;44185;47.844;8.966;2023-05-23T00:44:43;95994.66;;;12.88;100.00
58385;BME280;44185;47.844;8.966;2023-05-23T00:47:08;95993.84;;;12.87;100.00
58385;BME280;44185;47.844;8.966;2023-05-23T00:49:34;95996.06;;;12.92;100.00
58385;BME280;44185;47.844;8.966;2023-05-23T00:52:00;95989.44;;;12.78;100.00
58385;BME280;44185;47.844;8.966;2023-05-23T00:54:28;95993.16;;;12.67;100.00
58385;BME280;44185;47.844;8.966;2023-05-23T00:56:55;95998.34;;;12.68;100.00
58385;BME280;44185;47.844;8.966;2023-05-23T00:59:20;95999.06;;;12.61;100.00
58385;BME280;44185;47.844;8.966;2023-05-23T01:01:47;95998.84;;;12.72;100.00
58385;BME280;44185;47.844;8.966;2023-05-23T01:04:14;95999.09;;;12.79;100.00
58385;BME280;44185;47.844;8.966;2023-05-23T01:06:40;95999.59;;;12.83;100.00
58385;BME280;44185;47.844;8.966;2023-05-23T01:09:05;96009.34;;;12.74;100.00
58385;BME280;44185;47.844;8.966;2023-05-23T01:11:34;96004.53;;;12.77;100.00
58385;BME280;44185;47.844;8.966;2023-05-23T01:14:10;96012.97;;;12.73;100.00
58385;BME280;44185;47.844;8.966;2023-05-23T01:16:43;96013.81;;;12.73;100.00
58385;BME280;44185;47.844;8.966;2023-05-23T01:19:24;96006.66;;;12.55;100.00
58385;BME280;44185;47.844;8.966;2023-05-23T01:21:59;96010.22;;;12.64;100.00
58385;BME280;44185;47.844;8.966;2023-05-23T01:24:35;96016.47;;;12.55;100.00
58385;BME280;44185;47.844;8.966;2023-05-23T01:27:10;96013.56;;;12.48;100.00
58385;BME280;44185;47.844;8.966;2023-05-23T01:29:46;96010.44;;;12.53;100.00
58385;BME280;44185;47.844;8.966;2023-05-23T01:32:15;96017.41;;;12.36;100.00
58385;BME280;44185;47.844;8.966;2023-05-23T01:34:41;96013.22;;;12.33;100.00
58385;BME280;44185;47.844;8.966;2023-05-23T01:37:08;96011.03;;;12.28;100.00
58385;BME280;44185;47.844;8.966;2023-05-23T01:39:33;96005.66;;;12.38;100.00
58385;BME280;44185;47.844;8.966;2023-05-23T01:41:59;96000.66;;;12.35;100.00
58385;BME280;44185;47.844;8.966;2023-05-23T01:44:24;96007.03;;;12.42;100.00
58385;BME280;44185;47.844;8.966;2023-05-23T01:46:51;96003.78;;;12.49;100.00
58385;BME280;44185;47.844;8.966;2023-05-23T01:49:17;96001.41;;;12.45;100.00
58385;BME280;44185;47.844;8.966;2023-05-23T01:51:44;95997.78;;;12.47;100.00
58385;BME280;44185;47.844;8.966;2023-05-23T01:54:10;96001.03;;;12.40;100.00
58385;BME280;44185;47.844;8.966;2023-05-23T01:56:36;96009.28;;;12.37;100.00
58385;BME280;44185;47.844;8.966;2023-05-23T01:59:02;96010.41;;;12.34;100.00
58385;BME280;44185;47.844;8.966;2023-05-23T02:01:28;96015.84;;;12.15;100.00
58385;BME280;44185;47.844;8.966;2023-05-23T02:03:55;96017.66;;;12.14;100.00
58385;BME280;44185;47.844;8.966;2023-05-23T02:06:20;96018.22;;;12.18;100.00
58385;BME280;44185;47.844;8.966;2023-05-23T02:08:46;96012.84;;;11.99;100.00
58385;BME280;44185;47.844;8.966;2023-05-23T02:11:11;96017.00;;;12.02;100.00
58385;BME280;44185;47.844;8.966;2023-05-23T02:13:37;96009.38;;;11.89;100.00
58385;BME280;44185;47.844;8.966;2023-05-23T02:16:02;96021.19;;;12.05;100.00
58385;BME280;44185;47.844;8.966;2023-05-23T02:18:28;96014.75;;;12.07;100.00
58385;BME280;44185;47.844;8.966;2023-05-23T02:20:54;96018.34;;;12.16;100.00
58385;BME280;44185;47.844;8.966;2023-05-23T02:23:20;96016.28;;;12.10;100.00
58385;BME280;44185;47.844;8.966;2023-05-23T02:25:45;96011.94;;;12.09;100.00
58385;BME280;44185;47.844;8.966;2023-05-23T02:28:11;96030.34;;;11.82;100.00
58385;BME280;44185;47.844;8.966;2023-05-23T02:30:36;96032.25;;;11.90;100.00
58385;BME280;44185;47.844;8.966;2023-05-23T02:33:04;96034.78;;;11.82;100.00
58385;BME280;44185;47.844;8.966;2023-05-23T02:35:29;96027.03;;;11.70;100.00
58385;BME280;44185;47.844;8.966;2023-05-23T02:37:56;96038.84;;;11.86;100.00
58385;BME280;44185;47.844;8.966;2023-05-23T02:40:21;96041.06;;;11.90;100.00
58385;BME280;44185;47.844;8.966;2023-05-23T02:42:47;96042.75;;;11.82;100.00
58385;BME280;44185;47.844;8.966;2023-05-23T02:45:12;96044.88;;;11.78;100.00
58385;BME280;44185;47.844;8.966;2023-05-23T02:47:38;96042.38;;;11.66;100.00
58385;BME280;44185;47.844;8.966;2023-05-23T02:50:04;96045.47;;;11.62;100.00
58385;BME280;44185;47.844;8.966;2023-05-23T02:52:29;96046.41;;;11.71;100.00
58385;BME280;44185;47.844;8.966;2023-05-23T02:54:56;96045.88;;;11.67;100.00
58385;BME280;44185;47.844;8.966;2023-05-23T02:57:21;96044.19;;;11.66;100.00
58385;BME280;44185;47.844;8.966;2023-05-23T02:59:47;96047.97;;;11.63;100.00
58385;BME280;44185;47.844;8.966;2023-05-23T03:02:12;96036.97;;;11.58;100.00
58385;BME280;44185;47.844;8.966;2023-05-23T03:04:37;96036.84;;;11.60;100.00
58385;BME280;44185;47.844;8.966;2023-05-23T03:07:03;96035.44;;;11.55;100.00
58385;BME280;44185;47.844;8.966;2023-05-23T03:09:28;96039.06;;;11.64;100.00
58385;BME280;44185;47.844;8.966;2023-05-23T03:11:55;96036.28;;;11.56;100.00
58385;BME280;44185;47.844;8.966;2023-05-23T03:14:21;96045.34;;;11.53;100.00
58385;BME280;44185;47.844;8.966;2023-05-23T03:16:46;96041.81;;;11.63;100.00
58385;BME280;44185;47.844;8.966;2023-05-23T03:19:11;96042.53;;;11.65;100.00
58385;BME280;44185;47.844;8.966;2023-05-23T03:21:37;96044.06;;;11.57;100.00
58385;BME280;44185;47.844;8.966;2023-05-23T03:24:03;96042.13;;;11.60;100.00
58385;BME280;44185;47.844;8.966;2023-05-23T03:26:28;96047.44;;;11.60;100.00
58385;BME280;44185;47.844;8.966;2023-05-23T03:28:55;96041.72;;;11.54;100.00
58385;BME280;44185;47.844;8.966;2023-05-23T03:31:21;96047.31;;;11.41;100.00
58385;BME280;44185;47.844;8.966;2023-05-23T03:33:46;96049.88;;;11.33;100.00
58385;BME280;44185;47.844;8.966;2023-05-23T03:36:12;96053.06;;;11.27;100.00
58385;BME280;44185;47.844;8.966;2023-05-23T03:38:37;96067.56;;;11.32;100.00
58385;BME280;44185;47.844;8.966;2023-05-23T03:41:02;96057.50;;;11.36;100.00
58385;BME280;44185;47.844;8.966;2023-05-23T03:43:28;96066.00;;;11.40;100.00
58385;BME280;44185;47.844;8.966;2023-05-23T03:45:55;96064.47;;;11.47;100.00
58385;BME280;44185;47.844;8.966;2023-05-23T03:48:20;96059.03;;;11.49;100.00
58385;BME280;44185;47.844;8.966;2023-05-23T03:50:46;96065.16;;;11.39;100.00
58385;BME280;44185;47.844;8.966;2023-05-23T03:53:11;96065.88;;;11.51;100.00
58385;BME280;44185;47.844;8.966;2023-05-23T03:55:37;96075.88;;;11.57;100.00
58385;BME280;44185;47.844;8.966;2023-05-23T03:58:03;96063.19;;;11.61;100.00
58385;BME280;44185;47.844;8.966;2023-05-23T04:00:28;96067.63;;;11.61;100.00
58385;BME280;44185;47.844;8.966;2023-05-23T04:02:55;96060.13;;;11.56;100.00
58385;BME280;44185;47.844;8.966;2023-05-23T04:05:20;96069.59;;;11.59;100.00
58385;BME280;44185;47.844;8.966;2023-05-23T04:07:46;96068.72;;;11.68;100.00
58385;BME280;44185;47.844;8.966;2023-05-23T04:10:11;96072.63;;;11.74;100.00
58385;BME280;44185;47.844;8.966;2023-05-23T04:12:37;96070.25;;;11.81;100.00
58385;BME280;44185;47.844;8.966;2023-05-23T04:15:03;96071.78;;;11.83;100.00
58385;BME280;44185;47.844;8.966;2023-05-23T04:17:28;96079.41;;;11.86;100.00
58385;BME280;44185;47.844;8.966;2023-05-23T04:19:55;96084.97;;;12.03;100.00
58385;BME280;44185;47.844;8.966;2023-05-23T04:22:21;96079.25;;;11.98;100.00
58385;BME280;44185;47.844;8.966;2023-05-23T04:24:46;96084.13;;;12.02;100.00
58385;BME280;44185;47.844;8.966;2023-05-23T04:27:11;96081.75;;;12.09;100.00
58385;BME280;44185;47.844;8.966;2023-05-23T04:29:37;96086.75;;;12.22;100.00
58385;BME280;44185;47.844;8.966;2023-05-23T04:32:02;96089.69;;;12.19;100.00
58385;BME280;44185;47.844;8.966;2023-05-23T04:34:28;96086.56;;;12.24;100.00
58385;BME280;44185;47.844;8.966;2023-05-23T04:36:55;96095.47;;;12.33;100.00
58385;BME280;44185;47.844;8.966;2023-05-23T04:39:20;96090.03;;;12.34;100.00
58385;BME280;44185;47.844;8.966;2023-05-23T04:41:46;96092.84;;;12.33;100.00
58385;BME280;44185;47.844;8.966;2023-05-23T04:44:11;96088.81;;;12.29;100.00
58385;BME280;44185;47.844;8.966;2023-05-23T04:46:36;96088.88;;;12.37;100.00
58385;BME280;44185;47.844;8.966;2023-05-23T04:49:02;96092.09;;;12.41;100.00
58385;BME280;44185;47.844;8.966;2023-05-23T04:51:27;96082.25;;;12.51;100.00
58385;BME280;44185;47.844;8.966;2023-05-23T04:53:54;96092.44;;;12.56;100.00
58385;BME280;44185;47.844;8.966;2023-05-23T04:56:20;96095.25;;;12.54;100.00
58385;BME280;44185;47.844;8.966;2023-05-23T04:58:45;96097.44;;;12.59;100.00
58385;BME280;44185;47.844;8.966;2023-05-23T05:01:10;96100.50;;;12.64;100.00
58385;BME280;44185;47.844;8.966;2023-05-23T05:03:36;96099.66;;;12.64;100.00
58385;BME280;44185;47.844;8.966;2023-05-23T05:06:01;96109.69;;;12.70;100.00
58385;BME280;44185;47.844;8.966;2023-05-23T05:08:27;96111.59;;;12.78;100.00
58385;BME280;44185;47.844;8.966;2023-05-23T05:10:54;96111.81;;;12.85;100.00
58385;BME280;44185;47.844;8.966;2023-05-23T05:13:19;96115.41;;;12.94;100.00
58385;BME280;44185;47.844;8.966;2023-05-23T05:15:45;96120.03;;;12.92;100.00
58385;BME280;44185;47.844;8.966;2023-05-23T05:18:10;96121.47;;;13.04;100.00
58385;BME280;44185;47.844;8.966;2023-05-23T05:20:36;96125.91;;;13.14;100.00
58385;BME280;44185;47.844;8.966;2023-05-23T05:23:01;96128.94;;;13.19;100.00
58385;BME280;44185;47.844;8.966;2023-05-23T05:25:27;96129.44;;;13.22;100.00
58385;BME280;44185;47.844;8.966;2023-05-23T05:27:53;96127.78;;;13.21;100.00
58385;BME280;44185;47.844;8.966;2023-05-23T05:30:19;96127.16;;;13.28;100.00
58385;BME280;44185;47.844;8.966;2023-05-23T05:32:45;96126.88;;;13.31;100.00
58385;BME280;44185;47.844;8.966;2023-05-23T05:35:10;96122.91;;;13.35;100.00
58385;BME280;44185;47.844;8.966;2023-05-23T05:37:36;96131.13;;;13.42;100.00
58385;BME280;44185;47.844;8.966;2023-05-23T05:40:01;96132.84;;;13.51;100.00
58385;BME280;44185;47.844;8.966;2023-05-23T05:42:26;96136.63;;;13.59;100.00
58385;BME280;44185;47.844;8.966;2023-05-23T05:44:53;96141.00;;;13.68;100.00
58385;BME280;44185;47.844;8.966;2023-05-23T05:47:19;96135.22;;;13.73;100.00
58385;BME280;44185;47.844;8.966;2023-05-23T05:49:45;96139.63;;;13.82;100.00
58385;BME280;44185;47.844;8.966;2023-05-23T05:52:10;96130.84;;;13.90;100.00
58385;BME280;44185;47.844;8.966;2023-05-23T05:54:35;96125.22;;;13.93;100.00
58385;BME280;44185;47.844;8.966;2023-05-23T05:57:01;96131.03;;;13.97;100.00
58385;BME280;44185;47.844;8.966;2023-05-23T05:59:26;96127.25;;;13.99;100.00
58385;BME280;44185;47.844;8.966;2023-05-23T06:01:53;96131.78;;;14.07;100.00
58385;BME280;44185;47.844;8.966;2023-05-23T06:04:19;96132.09;;;14.04;100.00
58385;BME280;44185;47.844;8.966;2023-05-23T06:06:44;96133.34;;;14.18;100.00
58385;BME280;44185;47.844;8.966;2023-05-23T06:09:10;96124.56;;;14.26;100.00
58385;BME280;44185;47.844;8.966;2023-05-23T06:11:36;96126.28;;;14.36;100.00
58385;BME280;44185;47.844;8.966;2023-05-23T06:14:01;96127.97;;;14.45;100.00
58385;BME280;44185;47.844;8.966;2023-05-23T06:16:27;96132.13;;;14.39;100.00
58385;BME280;44185;47.844;8.966;2023-05-23T06:18:53;96140.13;;;14.48;100.00
58385;BME280;44185;47.844;8.966;2023-05-23T06:21:19;96144.84;;;14.54;100.00
58385;BME280;44185;47.844;8.966;2023-05-23T06:23:44;96134.69;;;14.57;100.00
58385;BME280;44185;47.844;8.966;2023-05-23T06:26:10;96140.50;;;14.53;100.00
58385;BME280;44185;47.844;8.966;2023-05-23T06:28:36;96133.06;;;14.65;100.00
58385;BME280;44185;47.844;8.966;2023-05-23T06:31:02;96128.56;;;14.65;100.00
58385;BME280;44185;47.844;8.966;2023-05-23T06:33:27;96127.09;;;14.71;100.00
58385;BME280;44185;47.844;8.966;2023-05-23T06:35:54;96135.94;;;14.80;100.00
58385;BME280;44185;47.844;8.966;2023-05-23T06:38:20;96139.09;;;14.84;100.00
58385;BME280;44185;47.844;8.966;2023-05-23T06:40:45;96140.16;;;14.91;100.00
58385;BME280;44185;47.844;8.966;2023-05-23T06:43:10;96151.66;;;15.00;100.00
58385;BME280;44185;47.844;8.966;2023-05-23T06:45:36;96146.34;;;15.00;100.00
58385;BME280;44185;47.844;8.966;2023-05-23T06:48:01;96146.84;;;15.04;100.00
58385;BME280;44185;47.844;8.966;2023-05-23T06:50:27;96149.88;;;15.09;100.00
58385;BME280;44185;47.844;8.966;2023-05-23T06:52:53;96153.19;;;15.11;100.00
58385;BME280;44185;47.844;8.966;2023-05-23T06:55:19;96146.03;;;15.11;100.00
58385;BME280;44185;47.844;8.966;2023-05-23T06:57:45;96141.69;;;15.10;100.00
58385;BME280;44185;47.844;8.966;2023-05-23T07:00:11;96148.72;;;15.20;100.00
58385;BME280;44185;47.844;8.966;2023-05-23T07:02:37;96152.22;;;15.37;100.00
58385;BME280;44185;47.844;8.966;2023-05-23T07:05:03;96146.28;;;15.60;100.00
58385;BME280;44185;47.844;8.966;2023-05-23T07:07:28;96140.25;;;15.92;100.00
58385;BME280;44185;47.844;8.966;2023-05-23T07:09:55;96149.56;;;16.21;100.00
58385;BME280;44185;47.844;8.966;2023-05-23T07:12:20;96144.03;;;16.22;100.00
58385;BME280;44185;47.844;8.966;2023-05-23T07:14:46;96151.66;;;16.51;100.00
58385;BME280;44185;47.844;8.966;2023-05-23T07:17:11;96148.63;;;16.94;100.00
58385;BME280;44185;47.844;8.966;2023-05-23T07:19:37;96155.53;;;17.20;100.00
58385;BME280;44185;47.844;8.966;2023-05-23T07:22:02;96151.47;;;17.33;100.00
58385;BME280;44185;47.844;8.966;2023-05-23T07:24:27;96151.84;;;17.68;100.00
58385;BME280;44185;47.844;8.966;2023-05-23T07:26:54;96152.66;;;17.93;100.00
58385;BME280;44185;47.844;8.966;2023-05-23T07:29:20;96157.34;;;17.90;100.00
58385;BME280;44185;47.844;8.966;2023-05-23T07:31:45;96156.03;;;17.86;100.00
58385;BME280;44185;47.844;8.966;2023-05-23T07:34:11;96163.38;;;18.08;100.00
58385;BME280;44185;47.844;8.966;2023-05-23T07:36:36;96157.72;;;18.26;100.00
58385;BME280;44185;47.844;8.966;2023-05-23T07:39:02;96148.97;;;18.63;100.00
58385;BME280;44185;47.844;8.966;2023-05-23T07:41:27;96158.84;;;19.15;100.00
58385;BME280;44185;47.844;8.966;2023-05-23T07:43:54;96148.50;;;19.27;100.00
58385;BME280;44185;47.844;8.966;2023-05-23T07:46:19;96151.81;;;19.14;94.00
58385;BME280;44185;47.844;8.966;2023-05-23T07:48:45;96146.91;;;18.80;95.13
58385;BME280;44185;47.844;8.966;2023-05-23T07:51:10;96146.72;;;18.66;96.84
58385;BME280;44185;47.844;8.966;2023-05-23T07:53:35;96139.81;;;18.57;98.40
58385;BME280;44185;47.844;8.966;2023-05-23T07:56:01;96146.06;;;18.79;94.91
58385;BME280;44185;47.844;8.966;2023-05-23T07:58:26;96145.53;;;19.06;95.96
58385;BME280;44185;47.844;8.966;2023-05-23T08:00:53;96146.16;;;18.86;95.90
58385;BME280;44185;47.844;8.966;2023-05-23T08:03:19;96150.06;;;19.06;97.86
58385;BME280;44185;47.844;8.966;2023-05-23T08:05:45;96158.50;;;19.03;94.80
58385;BME280;44185;47.844;8.966;2023-05-23T08:08:11;96147.72;;;18.81;96.41
58385;BME280;44185;47.844;8.966;2023-05-23T08:10:36;96148.81;;;19.01;97.28
58385;BME280;44185;47.844;8.966;2023-05-23T08:13:02;96151.41;;;18.95;94.19
58385;BME280;44185;47.844;8.966;2023-05-23T08:15:27;96156.63;;;19.03;96.19
58385;BME280;44185;47.844;8.966;2023-05-23T08:17:54;96160.38;;;19.02;96.48
58385;BME280;44185;47.844;8.966;2023-05-23T08:20:20;96156.78;;;18.95;96.84
58385;BME280;44185;47.844;8.966;2023-05-23T08:22:45;96159.53;;;19.01;96.93
58385;BME280;44185;47.844;8.966;2023-05-23T08:25:11;96155.69;;;19.11;96.56
58385;BME280;44185;47.844;8.966;2023-05-23T08:27:36;96155.84;;;19.03;95.61
58385;BME280;44185;47.844;8.966;2023-05-23T08:30:02;96159.22;;;19.11;95.58
58385;BME280;44185;47.844;8.966;2023-05-23T08:32:28;96167.00;;;19.06;94.19
58385;BME280;44185;47.844;8.966;2023-05-23T08:34:54;96157.41;;;18.97;95.81
58385;BME280;44185;47.844;8.966;2023-05-23T08:37:20;96161.00;;;19.04;95.25
58385;BME280;44185;47.844;8.966;2023-05-23T08:39:45;96156.91;;;19.08;95.33
58385;BME280;44185;47.844;8.966;2023-05-23T08:42:11;96153.97;;;19.03;94.54
58385;BME280;44185;47.844;8.966;2023-05-23T08:44:36;96162.16;;;19.17;95.57
58385;BME280;44185;47.844;8.966;2023-05-23T08:47:03;96164.84;;;19.32;94.46
58385;BME280;44185;47.844;8.966;2023-05-23T08:49:28;96166.63;;;19.47;96.18
58385;BME280;44185;47.844;8.966;2023-05-23T08:51:58;96166.78;;;19.60;94.42
58385;BME280;44185;47.844;8.966;2023-05-23T08:54:25;96166.06;;;19.95;91.31
58385;BME280;44185;47.844;8.966;2023-05-23T08:56:51;96165.31;;;20.30;90.93
58385;BME280;44185;47.844;8.966;2023-05-23T08:59:17;96168.06;;;20.86;84.85
58385;BME280;44185;47.844;8.966;2023-05-23T09:01:43;96170.31;;;21.18;84.10
58385;BME280;44185;47.844;8.966;2023-05-23T09:04:09;96166.28;;;21.77;85.20
58385;BME280;44185;47.844;8.966;2023-05-23T09:06:36;96170.47;;;22.07;81.97
58385;BME280;44185;47.844;8.966;2023-05-23T09:09:03;96169.84;;;22.05;74.49
58385;BME280;44185;47.844;8.966;2023-05-23T09:11:28;96170.38;;;21.45;77.97
58385;BME280;44185;47.844;8.966;2023-05-23T09:13:54;96173.41;;;21.15;80.74
58385;BME280;44185;47.844;8.966;2023-05-23T09:16:19;96174.03;;;20.75;79.81
58385;BME280;44185;47.844;8.966;2023-05-23T09:18:45;96173.34;;;20.59;81.93
58385;BME280;44185;47.844;8.966;2023-05-23T09:21:11;96175.03;;;20.31;83.50
58385;BME280;44185;47.844;8.966;2023-05-23T09:23:39;96173.44;;;20.15;83.78
58385;BME280;44185;47.844;8.966;2023-05-23T09:26:07;96167.13;;;20.01;86.89
58385;BME280;44185;47.844;8.966;2023-05-23T09:28:34;96173.09;;;19.74;89.78
58385;BME280;44185;47.844;8.966;2023-05-23T09:31:00;96175.97;;;19.73;88.83
58385;BME280;44185;47.844;8.966;2023-05-23T09:33:34;96167.22;;;19.64;90.45
58385;BME280;44185;47.844;8.966;2023-05-23T09:36:02;96167.41;;;19.62;90.90
58385;BME280;44185;47.844;8.966;2023-05-23T09:38:27;96163.88;;;19.62;91.18
58385;BME280;44185;47.844;8.966;2023-05-23T09:40:53;96158.97;;;19.65;90.58
58385;BME280;44185;47.844;8.966;2023-05-23T09:43:20;96172.06;;;19.75;90.02
58385;BME280;44185;47.844;8.966;2023-05-23T09:45:46;96173.59;;;19.85;88.01
58385;BME280;44185;47.844;8.966;2023-05-23T09:48:12;96167.69;;;19.96;88.58
58385;BME280;44185;47.844;8.966;2023-05-23T09:50:37;96171.72;;;20.07;86.45
58385;BME280;44185;47.844;8.966;2023-05-23T09:53:02;96165.91;;;20.04;84.70
58385;BME280;44185;47.844;8.966;2023-05-23T09:55:28;96170.84;;;19.78;86.81
58385;BME280;44185;47.844;8.966;2023-05-23T09:57:54;96165.66;;;19.98;84.69
58385;BME280;44185;47.844;8.966;2023-05-23T10:00:22;96155.06;;;19.90;82.88
58385;BME280;44185;47.844;8.966;2023-05-23T10:02:57;96158.28;;;20.07;87.05
58385;BME280;44185;47.844;8.966;2023-05-23T10:05:30;96168.72;;;20.17;92.02
58385;BME280;44185;47.844;8.966;2023-05-23T10:08:00;96162.81;;;20.07;91.53
58385;BME280;44185;47.844;8.966;2023-05-23T10:10:27;96166.13;;;19.80;98.36
58385;BME280;44185;47.844;8.966;2023-05-23T10:12:57;96154.50;;;19.29;100.00
58385;BME280;44185;47.844;8.966;2023-05-23T10:15:26;96153.19;;;19.25;100.00
58385;BME280;44185;47.844;8.966;2023-05-23T10:18:04;96150.91;;;19.21;100.00
58385;BME280;44185;47.844;8.966;2023-05-23T10:20:32;96152.41;;;18.94;100.00
58385;BME280;44185;47.844;8.966;2023-05-23T10:22:59;96152.09;;;18.66;100.00
58385;BME280;44185;47.844;8.966;2023-05-23T10:25:25;96141.31;;;18.44;100.00
58385;BME280;44185;47.844;8.966;2023-05-23T10:27:54;96137.75;;;18.29;100.00
58385;BME280;44185;47.844;8.966;2023-05-23T10:30:20;96140.72;;;18.34;100.00
58385;BME280;44185;47.844;8.966;2023-05-23T10:32:47;96135.28;;;18.58;100.00
58385;BME280;44185;47.844;8.966;2023-05-23T10:35:18;96138.97;;;18.56;100.00
58385;BME280;44185;47.844;8.966;2023-05-23T10:37:51;96137.69;;;18.22;100.00
58385;BME280;44185;47.844;8.966;2023-05-23T10:40:26;96140.97;;;18.09;100.00
58385;BME280;44185;47.844;8.966;2023-05-23T10:43:00;96128.34;;;17.79;100.00
58385;BME280;44185;47.844;8.966;2023-05-23T10:45:27;96128.56;;;18.08;100.00
58385;BME280;44185;47.844;8.966;2023-05-23T10:47:53;96121.94;;;18.04;100.00
58385;BME280;44185;47.844;8.966;2023-05-23T10:50:32;96119.53;;;18.09;100.00
58385;BME280;44185;47.844;8.966;2023-05-23T10:52:58;96113.72;;;18.05;100.00
58385;BME280;44185;47.844;8.966;2023-05-23T10:55:24;96116.66;;;18.10;100.00
58385;BME280;44185;47.844;8.966;2023-05-23T10:58:07;96125.09;;;18.07;100.00
58385;BME280;44185;47.844;8.966;2023-05-23T11:00:33;96131.75;;;18.27;100.00
58385;BME280;44185;47.844;8.966;2023-05-23T11:03:04;96129.91;;;18.27;100.00
58385;BME280;44185;47.844;8.966;2023-05-23T11:05:31;96136.56;;;18.31;100.00
58385;BME280;44185;47.844;8.966;2023-05-23T11:08:07;96126.31;;;18.35;100.00
58385;BME280;44185;47.844;8.966;2023-05-23T11:10:50;96123.91;;;18.55;100.00
58385;BME280;44185;47.844;8.966;2023-05-23T11:13:16;96114.94;;;18.48;100.00
58385;BME280;44185;47.844;8.966;2023-05-23T11:15:41;96127.44;;;18.41;100.00
58385;BME280;44185;47.844;8.966;2023-05-23T11:18:08;96113.56;;;18.37;100.00
58385;BME280;44185;47.844;8.966;2023-05-23T11:20:36;96113.28;;;18.32;100.00
58385;BME280;44185;47.844;8.966;2023-05-23T11:23:06;96110.66;;;18.08;100.00
58385;BME280;44185;47.844;8.966;2023-05-23T11:25:39;96115.19;;;18.08;100.00
58385;BME280;44185;47.844;8.966;2023-05-23T11:28:05;96116.78;;;18.17;100.00
58385;BME280;44185;47.844;8.966;2023-05-23T11:30:30;96118.06;;;18.06;100.00
58385;BME280;44185;47.844;8.966;2023-05-23T11:32:56;96115.31;;;18.15;100.00
58385;BME280;44185;47.844;8.966;2023-05-23T11:35:23;96112.34;;;18.09;100.00
58385;BME280;44185;47.844;8.966;2023-05-23T11:37:48;96109.59;;;18.18;100.00
58385;BME280;44185;47.844;8.966;2023-05-23T11:40:29;96111.25;;;18.34;100.00
58385;BME280;44185;47.844;8.966;2023-05-23T11:42:55;96123.16;;;18.62;100.00
58385;BME280;44185;47.844;8.966;2023-05-23T11:45:21;96117.25;;;18.82;100.00
58385;BME280;44185;47.844;8.966;2023-05-23T11:47:49;96117.56;;;18.94;100.00
58385;BME280;44185;47.844;8.966;2023-05-23T11:50:15;96117.72;;;18.70;100.00
58385;BME280;44185;47.844;8.966;2023-05-23T11:52:42;96118.03;;;18.97;100.00
58385;BME280;44185;47.844;8.966;2023-05-23T11:55:08;96111.13;;;19.25;100.00
58385;BME280;44185;47.844;8.966;2023-05-23T11:57:36;96108.78;;;19.00;100.00
58385;BME280;44185;47.844;8.966;2023-05-23T12:00:03;96110.41;;;18.79;100.00
58385;BME280;44185;47.844;8.966;2023-05-23T12:02:30;96099.72;;;18.49;100.00
58385;BME280;44185;47.844;8.966;2023-05-23T12:04:55;96106.47;;;18.29;100.00
58385;BME280;44185;47.844;8.966;2023-05-23T12:07:21;96109.59;;;18.33;100.00
58385;BME280;44185;47.844;8.966;2023-05-23T12:09:47;96106.16;;;18.09;100.00
58385;BME280;44185;47.844;8.966;2023-05-23T12:12:13;96112.13;;;17.96;100.00
58385;BME280;44185;47.844;8.966;2023-05-23T12:14:40;96117.72;;;17.47;100.00
58385;BME280;44185;47.844;8.966;2023-05-23T12:17:05;96128.28;;;17.25;100.00
58385;BME280;44185;47.844;8.966;2023-05-23T12:19:31;96141.84;;;16.75;100.00
58385;BME280;44185;47.844;8.966;2023-05-23T12:22:04;96134.31;;;16.38;100.00
58385;BME280;44185;47.844;8.966;2023-05-23T12:24:30;96140.16;;;16.42;100.00
58385;BME280;44185;47.844;8.966;2023-05-23T12:26:59;96141.59;;;15.71;100.00
58385;BME280;44185;47.844;8.966;2023-05-23T12:29:28;96121.91;;;15.30;100.00
58385;BME280;44185;47.844;8.966;2023-05-23T12:31:54;96112.41;;;15.36;100.00
58385;BME280;44185;47.844;8.966;2023-05-23T12:34:20;96110.25;;;15.48;100.00
58385;BME280;44185;47.844;8.966;2023-05-23T12:36:45;96108.91;;;15.27;100.00
58385;BME280;44185;47.844;8.966;2023-05-23T12:39:11;96098.56;;;15.23;100.00
58385;BME280;44185;47.844;8.966;2023-05-23T12:41:36;96109.75;;;15.36;100.00
58385;BME280;44185;47.844;8.966;2023-05-23T12:44:03;96131.09;;;15.36;100.00
58385;BME280;44185;47.844;8.966;2023-05-23T12:46:28;96140.25;;;15.33;100.00
58385;BME280;44185;47.844;8.966;2023-05-23T12:48:54;96161.41;;;15.43;100.00